sensor_id;sensor_type;location;lat;lon;timestamp;P1;durP1;ratioP1;P2;durP2;ratioP2
29344;SDS011;16339;48.748;2.222;2022-08-04T00:00:29;7.25;;;2.60;;
29344;SDS011;16339;48.748;2.222;2022-08-04T00:03:03;9.25;;;2.22;;
29344;SDS011;16339;48.748;2.222;2022-08-04T00:05:50;6.72;;;2.25;;
29344;SDS011;16339;48.748;2.222;2022-08-04T00:08:33;6.43;;;1.88;;
29344;SDS011;16339;48.748;2.222;2022-08-04T00:11:13;7.07;;;1.90;;
29344;SDS011;16339;48.748;2.222;2022-08-04T00:13:44;5.40;;;2.08;;
29344;SDS011;16339;48.748;2.222;2022-08-04T00:16:20;5.25;;;1.75;;
29344;SDS011;16339;48.748;2.222;2022-08-04T00:18:52;10.75;;;2.40;;
29344;SDS011;16339;48.748;2.222;2022-08-04T00:21:24;10.77;;;2.20;;
29344;SDS011;16339;48.748;2.222;2022-08-04T00:23:55;8.15;;;1.80;;
29344;SDS011;16339;48.748;2.222;2022-08-04T00:26:28;5.03;;;2.55;;
29344;SDS011;16339;48.748;2.222;2022-08-04T00:28:57;3.92;;;1.70;;
29344;SDS011;16339;48.748;2.222;2022-08-04T00:31:28;5.40;;;2.22;;
29344;SDS011;16339;48.748;2.222;2022-08-04T00:33:57;10.32;;;2.03;;
29344;SDS011;16339;48.748;2.222;2022-08-04T00:36:26;5.60;;;2.17;;
29344;SDS011;16339;48.748;2.222;2022-08-04T00:38:56;6.22;;;2.00;;
29344;SDS011;16339;48.748;2.222;2022-08-04T00:41:29;5.47;;;1.75;;
29344;SDS011;16339;48.748;2.222;2022-08-04T00:44:12;4.63;;;2.33;;
29344;SDS011;16339;48.748;2.222;2022-08-04T00:47:03;9.52;;;2.38;;
29344;SDS011;16339;48.748;2.222;2022-08-04T00:49:54;9.38;;;2.22;;
29344;SDS011;16339;48.748;2.222;2022-08-04T00:52:53;6.28;;;1.70;;
29344;SDS011;16339;48.748;2.222;2022-08-04T00:58:49;6.40;;;2.05;;
29344;SDS011;16339;48.748;2.222;2022-08-04T01:01:39;10.43;;;2.25;;
29344;SDS011;16339;48.748;2.222;2022-08-04T01:04:20;7.18;;;2.22;;
29344;SDS011;16339;48.748;2.222;2022-08-04T01:07:02;7.60;;;2.00;;
29344;SDS011;16339;48.748;2.222;2022-08-04T01:09:43;8.13;;;1.83;;
29344;SDS011;16339;48.748;2.222;2022-08-04T01:12:42;5.85;;;1.90;;
29344;SDS011;16339;48.748;2.222;2022-08-04T01:15:32;6.47;;;2.05;;
29344;SDS011;16339;48.748;2.222;2022-08-04T01:18:07;7.57;;;1.77;;
29344;SDS011;16339;48.748;2.222;2022-08-04T01:20:45;4.60;;;1.30;;
29344;SDS011;16339;48.748;2.222;2022-08-04T01:23:36;7.82;;;2.28;;
29344;SDS011;16339;48.748;2.222;2022-08-04T01:26:25;8.13;;;2.08;;
29344;SDS011;16339;48.748;2.222;2022-08-04T01:29:14;8.27;;;2.00;;
29344;SDS011;16339;48.748;2.222;2022-08-04T01:31:49;7.97;;;1.85;;
29344;SDS011;16339;48.748;2.222;2022-08-04T01:34:34;5.43;;;1.75;;
29344;SDS011;16339;48.748;2.222;2022-08-04T01:37:10;12.55;;;1.80;;
29344;SDS011;16339;48.748;2.222;2022-08-04T01:39:49;9.82;;;2.03;;
29344;SDS011;16339;48.748;2.222;2022-08-04T01:42:19;8.93;;;1.50;;
29344;SDS011;16339;48.748;2.222;2022-08-04T01:44:53;4.95;;;1.60;;
29344;SDS011;16339;48.748;2.222;2022-08-04T01:47:24;8.75;;;2.00;;
29344;SDS011;16339;48.748;2.222;2022-08-04T01:50:00;8.43;;;2.08;;
29344;SDS011;16339;48.748;2.222;2022-08-04T01:52:34;11.43;;;1.90;;
29344;SDS011;16339;48.748;2.222;2022-08-04T01:55:04;7.70;;;2.10;;
29344;SDS011;16339;48.748;2.222;2022-08-04T01:57:36;6.85;;;1.88;;
29344;SDS011;16339;48.748;2.222;2022-08-04T02:00:13;5.25;;;1.70;;
29344;SDS011;16339;48.748;2.222;2022-08-04T02:02:44;11.32;;;1.85;;
29344;SDS011;16339;48.748;2.222;2022-08-04T02:05:13;7.35;;;2.00;;
29344;SDS011;16339;48.748;2.222;2022-08-04T02:07:49;6.75;;;1.70;;
29344;SDS011;16339;48.748;2.222;2022-08-04T02:10:26;9.48;;;1.92;;
29344;SDS011;16339;48.748;2.222;2022-08-04T02:13:00;9.15;;;1.92;;
29344;SDS011;16339;48.748;2.222;2022-08-04T02:15:51;8.70;;;2.22;;
29344;SDS011;16339;48.748;2.222;2022-08-04T02:18:27;8.88;;;2.08;;
29344;SDS011;16339;48.748;2.222;2022-08-04T02:20:59;9.95;;;2.05;;
29344;SDS011;16339;48.748;2.222;2022-08-04T02:23:30;10.63;;;1.87;;
29344;SDS011;16339;48.748;2.222;2022-08-04T02:26:03;7.00;;;2.13;;
29344;SDS011;16339;48.748;2.222;2022-08-04T02:28:39;7.88;;;2.00;;
29344;SDS011;16339;48.748;2.222;2022-08-04T02:31:21;9.13;;;2.08;;
29344;SDS011;16339;48.748;2.222;2022-08-04T02:34:00;9.23;;;1.90;;
29344;SDS011;16339;48.748;2.222;2022-08-04T02:36:35;4.68;;;2.05;;
29344;SDS011;16339;48.748;2.222;2022-08-04T02:41:35;11.27;;;1.88;;
29344;SDS011;16339;48.748;2.222;2022-08-04T02:44:07;4.88;;;1.90;;
29344;SDS011;16339;48.748;2.222;2022-08-04T02:46:40;5.40;;;2.30;;
29344;SDS011;16339;48.748;2.222;2022-08-04T02:49:10;8.77;;;2.20;;
29344;SDS011;16339;48.748;2.222;2022-08-04T02:51:40;9.80;;;2.28;;
29344;SDS011;16339;48.748;2.222;2022-08-04T02:54:13;8.45;;;2.17;;
29344;SDS011;16339;48.748;2.222;2022-08-04T02:56:44;8.93;;;2.00;;
29344;SDS011;16339;48.748;2.222;2022-08-04T02:59:13;5.55;;;2.28;;
29344;SDS011;16339;48.748;2.222;2022-08-04T03:01:46;7.57;;;2.13;;
29344;SDS011;16339;48.748;2.222;2022-08-04T03:04:19;6.28;;;2.10;;
29344;SDS011;16339;48.748;2.222;2022-08-04T03:16:17;9.85;;;2.30;;
29344;SDS011;16339;48.748;2.222;2022-08-04T03:19:14;7.72;;;2.50;;
29344;SDS011;16339;48.748;2.222;2022-08-04T03:25:37;8.52;;;2.25;;
29344;SDS011;16339;48.748;2.222;2022-08-04T03:31:35;5.63;;;2.00;;
29344;SDS011;16339;48.748;2.222;2022-08-04T03:34:39;7.32;;;2.28;;
29344;SDS011;16339;48.748;2.222;2022-08-04T03:37:32;6.38;;;2.10;;
29344;SDS011;16339;48.748;2.222;2022-08-04T03:40:29;12.68;;;2.17;;
29344;SDS011;16339;48.748;2.222;2022-08-04T03:43:26;8.55;;;2.40;;
29344;SDS011;16339;48.748;2.222;2022-08-04T03:46:21;6.32;;;2.00;;
29344;SDS011;16339;48.748;2.222;2022-08-04T03:49:23;6.00;;;2.05;;
29344;SDS011;16339;48.748;2.222;2022-08-04T03:52:19;9.38;;;2.15;;
29344;SDS011;16339;48.748;2.222;2022-08-04T03:55:28;5.50;;;2.05;;
29344;SDS011;16339;48.748;2.222;2022-08-04T03:58:16;4.93;;;1.73;;
29344;SDS011;16339;48.748;2.222;2022-08-04T04:01:14;6.47;;;2.20;;
29344;SDS011;16339;48.748;2.222;2022-08-04T04:10:22;6.18;;;2.70;;
29344;SDS011;16339;48.748;2.222;2022-08-04T04:13:08;3.55;;;2.17;;
29344;SDS011;16339;48.748;2.222;2022-08-04T04:16:13;7.25;;;2.22;;
29344;SDS011;16339;48.748;2.222;2022-08-04T04:18:53;5.78;;;2.10;;
29344;SDS011;16339;48.748;2.222;2022-08-04T04:21:41;6.15;;;2.13;;
29344;SDS011;16339;48.748;2.222;2022-08-04T04:24:36;8.85;;;2.22;;
29344;SDS011;16339;48.748;2.222;2022-08-04T04:27:21;7.95;;;2.60;;
29344;SDS011;16339;48.748;2.222;2022-08-04T04:30:03;6.63;;;2.20;;
29344;SDS011;16339;48.748;2.222;2022-08-04T04:32:42;4.70;;;2.45;;
29344;SDS011;16339;48.748;2.222;2022-08-04T04:35:29;8.45;;;2.30;;
29344;SDS011;16339;48.748;2.222;2022-08-04T04:38:20;5.85;;;2.20;;
29344;SDS011;16339;48.748;2.222;2022-08-04T04:41:15;6.05;;;1.90;;
29344;SDS011;16339;48.748;2.222;2022-08-04T04:44:12;6.55;;;2.10;;
29344;SDS011;16339;48.748;2.222;2022-08-04T04:49:39;5.93;;;2.10;;
29344;SDS011;16339;48.748;2.222;2022-08-04T04:52:18;4.55;;;2.10;;
29344;SDS011;16339;48.748;2.222;2022-08-04T04:54:57;11.65;;;2.38;;
29344;SDS011;16339;48.748;2.222;2022-08-04T04:57:34;7.68;;;2.33;;
29344;SDS011;16339;48.748;2.222;2022-08-04T05:00:12;4.55;;;2.00;;
29344;SDS011;16339;48.748;2.222;2022-08-04T05:02:55;9.10;;;2.75;;
29344;SDS011;16339;48.748;2.222;2022-08-04T05:05:36;8.88;;;2.53;;
29344;SDS011;16339;48.748;2.222;2022-08-04T05:11:16;11.32;;;2.92;;
29344;SDS011;16339;48.748;2.222;2022-08-04T05:13:58;7.82;;;2.83;;
29344;SDS011;16339;48.748;2.222;2022-08-04T05:16:34;10.45;;;3.30;;
29344;SDS011;16339;48.748;2.222;2022-08-04T05:19:08;7.88;;;2.60;;
29344;SDS011;16339;48.748;2.222;2022-08-04T05:21:46;17.60;;;3.00;;
29344;SDS011;16339;48.748;2.222;2022-08-04T05:24:17;11.50;;;3.25;;
29344;SDS011;16339;48.748;2.222;2022-08-04T05:26:49;8.00;;;2.67;;
29344;SDS011;16339;48.748;2.222;2022-08-04T05:29:25;5.45;;;2.95;;
29344;SDS011;16339;48.748;2.222;2022-08-04T05:32:00;14.38;;;3.08;;
29344;SDS011;16339;48.748;2.222;2022-08-04T05:34:34;8.48;;;2.80;;
29344;SDS011;16339;48.748;2.222;2022-08-04T05:37:08;7.32;;;2.60;;
29344;SDS011;16339;48.748;2.222;2022-08-04T05:39:42;9.85;;;2.90;;
29344;SDS011;16339;48.748;2.222;2022-08-04T05:42:13;8.80;;;2.80;;
29344;SDS011;16339;48.748;2.222;2022-08-04T05:44:42;7.88;;;2.63;;
29344;SDS011;16339;48.748;2.222;2022-08-04T05:47:14;10.25;;;2.47;;
29344;SDS011;16339;48.748;2.222;2022-08-04T05:49:45;6.68;;;3.10;;
29344;SDS011;16339;48.748;2.222;2022-08-04T05:52:15;8.32;;;2.55;;
29344;SDS011;16339;48.748;2.222;2022-08-04T05:54:44;9.15;;;2.55;;
29344;SDS011;16339;48.748;2.222;2022-08-04T05:57:13;6.65;;;2.80;;
29344;SDS011;16339;48.748;2.222;2022-08-04T05:59:43;7.45;;;2.75;;
29344;SDS011;16339;48.748;2.222;2022-08-04T06:02:16;11.73;;;3.08;;
29344;SDS011;16339;48.748;2.222;2022-08-04T06:04:48;10.60;;;2.72;;
29344;SDS011;16339;48.748;2.222;2022-08-04T06:07:18;8.30;;;2.65;;
29344;SDS011;16339;48.748;2.222;2022-08-04T06:09:47;7.72;;;2.67;;
29344;SDS011;16339;48.748;2.222;2022-08-04T06:12:16;10.20;;;2.92;;
29344;SDS011;16339;48.748;2.222;2022-08-04T06:14:48;10.77;;;2.70;;
29344;SDS011;16339;48.748;2.222;2022-08-04T06:17:23;13.48;;;2.83;;
29344;SDS011;16339;48.748;2.222;2022-08-04T06:19:57;7.88;;;2.72;;
29344;SDS011;16339;48.748;2.222;2022-08-04T06:22:28;7.18;;;2.35;;
29344;SDS011;16339;48.748;2.222;2022-08-04T06:25:00;13.93;;;2.92;;
29344;SDS011;16339;48.748;2.222;2022-08-04T06:27:41;8.60;;;2.47;;
29344;SDS011;16339;48.748;2.222;2022-08-04T06:30:50;15.50;;;2.90;;
29344;SDS011;16339;48.748;2.222;2022-08-04T06:33:36;4.05;;;2.00;;
29344;SDS011;16339;48.748;2.222;2022-08-04T06:36:13;11.73;;;2.38;;
29344;SDS011;16339;48.748;2.222;2022-08-04T06:38:56;8.40;;;2.58;;
29344;SDS011;16339;48.748;2.222;2022-08-04T06:44:16;10.90;;;2.80;;
29344;SDS011;16339;48.748;2.222;2022-08-04T06:49:24;7.22;;;2.45;;
29344;SDS011;16339;48.748;2.222;2022-08-04T06:51:54;7.57;;;2.63;;
29344;SDS011;16339;48.748;2.222;2022-08-04T06:54:24;6.22;;;2.50;;
29344;SDS011;16339;48.748;2.222;2022-08-04T06:56:52;6.93;;;2.25;;
29344;SDS011;16339;48.748;2.222;2022-08-04T06:59:24;14.85;;;2.47;;
29344;SDS011;16339;48.748;2.222;2022-08-04T07:01:55;12.40;;;2.47;;
29344;SDS011;16339;48.748;2.222;2022-08-04T07:04:27;10.57;;;3.83;;
29344;SDS011;16339;48.748;2.222;2022-08-04T07:06:58;8.38;;;2.53;;
29344;SDS011;16339;48.748;2.222;2022-08-04T07:09:27;12.82;;;3.00;;
29344;SDS011;16339;48.748;2.222;2022-08-04T07:11:56;9.38;;;2.30;;
29344;SDS011;16339;48.748;2.222;2022-08-04T07:14:25;6.43;;;2.30;;
29344;SDS011;16339;48.748;2.222;2022-08-04T07:16:54;5.80;;;2.28;;
29344;SDS011;16339;48.748;2.222;2022-08-04T07:19:27;9.07;;;2.00;;
29344;SDS011;16339;48.748;2.222;2022-08-04T07:21:57;6.55;;;2.53;;
29344;SDS011;16339;48.748;2.222;2022-08-04T07:24:30;5.05;;;2.40;;
29344;SDS011;16339;48.748;2.222;2022-08-04T07:26:59;5.55;;;2.20;;
29344;SDS011;16339;48.748;2.222;2022-08-04T07:29:29;9.57;;;2.20;;
29344;SDS011;16339;48.748;2.222;2022-08-04T07:31:58;7.80;;;1.90;;
29344;SDS011;16339;48.748;2.222;2022-08-04T07:34:30;8.90;;;2.28;;
29344;SDS011;16339;48.748;2.222;2022-08-04T07:36:59;8.98;;;2.15;;
29344;SDS011;16339;48.748;2.222;2022-08-04T07:39:29;13.93;;;2.47;;
29344;SDS011;16339;48.748;2.222;2022-08-04T07:42:00;19.05;;;2.95;;
29344;SDS011;16339;48.748;2.222;2022-08-04T07:44:30;16.95;;;2.70;;
29344;SDS011;16339;48.748;2.222;2022-08-04T07:47:01;21.05;;;3.00;;
29344;SDS011;16339;48.748;2.222;2022-08-04T07:49:33;13.85;;;2.40;;
29344;SDS011;16339;48.748;2.222;2022-08-04T07:52:03;10.15;;;2.63;;
29344;SDS011;16339;48.748;2.222;2022-08-04T07:54:36;12.70;;;2.50;;
29344;SDS011;16339;48.748;2.222;2022-08-04T07:57:07;9.20;;;2.25;;
29344;SDS011;16339;48.748;2.222;2022-08-04T07:59:36;3.85;;;2.10;;
29344;SDS011;16339;48.748;2.222;2022-08-04T08:02:05;6.10;;;2.20;;
29344;SDS011;16339;48.748;2.222;2022-08-04T08:04:36;10.23;;;2.50;;
29344;SDS011;16339;48.748;2.222;2022-08-04T08:07:05;11.20;;;2.47;;
29344;SDS011;16339;48.748;2.222;2022-08-04T08:09:34;9.80;;;1.95;;
29344;SDS011;16339;48.748;2.222;2022-08-04T08:12:03;9.88;;;2.30;;
29344;SDS011;16339;48.748;2.222;2022-08-04T08:14:35;24.92;;;3.97;;
29344;SDS011;16339;48.748;2.222;2022-08-04T08:17:04;12.00;;;2.63;;
29344;SDS011;16339;48.748;2.222;2022-08-04T08:19:36;8.40;;;2.63;;
29344;SDS011;16339;48.748;2.222;2022-08-04T08:22:05;15.25;;;2.60;;
29344;SDS011;16339;48.748;2.222;2022-08-04T08:24:34;9.88;;;2.30;;
29344;SDS011;16339;48.748;2.222;2022-08-04T08:27:03;7.22;;;2.30;;
29344;SDS011;16339;48.748;2.222;2022-08-04T08:29:34;8.23;;;2.22;;
29344;SDS011;16339;48.748;2.222;2022-08-04T08:32:06;10.32;;;2.13;;
29344;SDS011;16339;48.748;2.222;2022-08-04T08:34:40;8.02;;;2.05;;
29344;SDS011;16339;48.748;2.222;2022-08-04T08:37:11;7.00;;;2.28;;
29344;SDS011;16339;48.748;2.222;2022-08-04T08:39:48;13.40;;;2.10;;
29344;SDS011;16339;48.748;2.222;2022-08-04T08:45:20;9.68;;;2.22;;
29344;SDS011;16339;48.748;2.222;2022-08-04T08:48:10;5.97;;;1.85;;
29344;SDS011;16339;48.748;2.222;2022-08-04T08:51:10;4.47;;;1.90;;
29344;SDS011;16339;48.748;2.222;2022-08-04T08:56:50;6.72;;;1.98;;
29344;SDS011;16339;48.748;2.222;2022-08-04T08:59:28;4.43;;;1.80;;
29344;SDS011;16339;48.748;2.222;2022-08-04T09:02:17;8.13;;;2.38;;
29344;SDS011;16339;48.748;2.222;2022-08-04T09:05:13;18.40;;;2.90;;
29344;SDS011;16339;48.748;2.222;2022-08-04T09:08:03;6.93;;;2.20;;
29344;SDS011;16339;48.748;2.222;2022-08-04T09:10:43;11.82;;;6.05;;
29344;SDS011;16339;48.748;2.222;2022-08-04T09:13:16;6.47;;;2.60;;
29344;SDS011;16339;48.748;2.222;2022-08-04T09:15:52;4.80;;;1.98;;
29344;SDS011;16339;48.748;2.222;2022-08-04T09:18:31;6.93;;;1.80;;
29344;SDS011;16339;48.748;2.222;2022-08-04T09:21:16;5.72;;;2.00;;
29344;SDS011;16339;48.748;2.222;2022-08-04T09:23:55;10.45;;;2.08;;
29344;SDS011;16339;48.748;2.222;2022-08-04T09:26:32;9.85;;;2.03;;
29344;SDS011;16339;48.748;2.222;2022-08-04T09:29:07;10.52;;;1.63;;
29344;SDS011;16339;48.748;2.222;2022-08-04T09:31:43;6.60;;;1.90;;
29344;SDS011;16339;48.748;2.222;2022-08-04T09:34:19;7.45;;;1.30;;
29344;SDS011;16339;48.748;2.222;2022-08-04T09:36:55;11.55;;;1.50;;
29344;SDS011;16339;48.748;2.222;2022-08-04T09:39:41;10.82;;;1.92;;
29344;SDS011;16339;48.748;2.222;2022-08-04T09:42:19;5.13;;;1.40;;
29344;SDS011;16339;48.748;2.222;2022-08-04T09:44:57;6.00;;;1.50;;
29344;SDS011;16339;48.748;2.222;2022-08-04T09:47:34;4.65;;;1.20;;
29344;SDS011;16339;48.748;2.222;2022-08-04T09:50:24;6.72;;;1.73;;
29344;SDS011;16339;48.748;2.222;2022-08-04T09:53:02;5.45;;;1.38;;
29344;SDS011;16339;48.748;2.222;2022-08-04T09:55:45;5.22;;;1.38;;
29344;SDS011;16339;48.748;2.222;2022-08-04T09:58:23;2.95;;;1.17;;
29344;SDS011;16339;48.748;2.222;2022-08-04T10:01:03;3.70;;;1.10;;
29344;SDS011;16339;48.748;2.222;2022-08-04T10:03:37;11.88;;;1.55;;
29344;SDS011;16339;48.748;2.222;2022-08-04T10:06:13;10.90;;;1.67;;
29344;SDS011;16339;48.748;2.222;2022-08-04T10:09:02;7.80;;;1.60;;
29344;SDS011;16339;48.748;2.222;2022-08-04T10:11:50;3.63;;;1.25;;
29344;SDS011;16339;48.748;2.222;2022-08-04T10:14:36;5.22;;;1.20;;
29344;SDS011;16339;48.748;2.222;2022-08-04T10:17:11;5.78;;;1.13;;
29344;SDS011;16339;48.748;2.222;2022-08-04T10:19:52;4.28;;;1.10;;
29344;SDS011;16339;48.748;2.222;2022-08-04T10:22:30;12.52;;;1.60;;
29344;SDS011;16339;48.748;2.222;2022-08-04T10:25:23;6.00;;;1.20;;
29344;SDS011;16339;48.748;2.222;2022-08-04T10:28:14;4.83;;;1.10;;
29344;SDS011;16339;48.748;2.222;2022-08-04T10:30:47;6.32;;;1.20;;
29344;SDS011;16339;48.748;2.222;2022-08-04T10:33:48;7.82;;;1.10;;
29344;SDS011;16339;48.748;2.222;2022-08-04T10:37:09;4.93;;;1.20;;
29344;SDS011;16339;48.748;2.222;2022-08-04T10:40:37;1.80;;;1.13;;
29344;SDS011;16339;48.748;2.222;2022-08-04T10:46:20;3.22;;;0.80;;
29344;SDS011;16339;48.748;2.222;2022-08-04T10:48:55;8.05;;;1.00;;
29344;SDS011;16339;48.748;2.222;2022-08-04T10:51:33;7.25;;;1.33;;
29344;SDS011;16339;48.748;2.222;2022-08-04T10:54:09;6.15;;;1.23;;
29344;SDS011;16339;48.748;2.222;2022-08-04T10:56:43;4.35;;;1.35;;
29344;SDS011;16339;48.748;2.222;2022-08-04T10:59:20;11.45;;;1.48;;
29344;SDS011;16339;48.748;2.222;2022-08-04T11:01:54;2.35;;;1.00;;
29344;SDS011;16339;48.748;2.222;2022-08-04T11:04:30;6.97;;;1.60;;
29344;SDS011;16339;48.748;2.222;2022-08-04T11:07:05;6.35;;;1.30;;
29344;SDS011;16339;48.748;2.222;2022-08-04T11:09:37;4.22;;;1.20;;
29344;SDS011;16339;48.748;2.222;2022-08-04T11:12:09;5.78;;;1.50;;
29344;SDS011;16339;48.748;2.222;2022-08-04T11:27:42;4.80;;;1.30;;
29344;SDS011;16339;48.748;2.222;2022-08-04T11:30:27;12.00;;;1.23;;
29344;SDS011;16339;48.748;2.222;2022-08-04T11:33:04;6.78;;;1.00;;
29344;SDS011;16339;48.748;2.222;2022-08-04T11:35:49;7.63;;;2.88;;
29344;SDS011;16339;48.748;2.222;2022-08-04T11:38:31;4.65;;;1.20;;
29344;SDS011;16339;48.748;2.222;2022-08-04T11:41:36;4.68;;;1.10;;
29344;SDS011;16339;48.748;2.222;2022-08-04T11:44:58;4.20;;;1.23;;
29344;SDS011;16339;48.748;2.222;2022-08-04T11:47:42;9.05;;;1.80;;
29344;SDS011;16339;48.748;2.222;2022-08-04T11:50:51;5.28;;;1.40;;
29344;SDS011;16339;48.748;2.222;2022-08-04T12:13:27;6.90;;;1.23;;
29344;SDS011;16339;48.748;2.222;2022-08-04T12:16:08;3.15;;;1.13;;
29344;SDS011;16339;48.748;2.222;2022-08-04T12:18:45;7.40;;;1.67;;
29344;SDS011;16339;48.748;2.222;2022-08-04T12:21:42;9.52;;;1.42;;
29344;SDS011;16339;48.748;2.222;2022-08-04T12:24:42;2.08;;;1.02;;
29344;SDS011;16339;48.748;2.222;2022-08-04T12:27:17;2.15;;;0.95;;
29344;SDS011;16339;48.748;2.222;2022-08-04T12:29:52;6.45;;;1.02;;
29344;SDS011;16339;48.748;2.222;2022-08-04T12:32:30;3.97;;;1.20;;
29344;SDS011;16339;48.748;2.222;2022-08-04T12:35:06;2.67;;;1.50;;
29344;SDS011;16339;48.748;2.222;2022-08-04T12:37:47;3.70;;;1.35;;
29344;SDS011;16339;48.748;2.222;2022-08-04T12:40:30;6.70;;;1.33;;
29344;SDS011;16339;48.748;2.222;2022-08-04T12:43:09;7.90;;;1.77;;
29344;SDS011;16339;48.748;2.222;2022-08-04T12:45:45;3.00;;;1.40;;
29344;SDS011;16339;48.748;2.222;2022-08-04T12:48:17;2.30;;;1.20;;
29344;SDS011;16339;48.748;2.222;2022-08-04T12:50:49;4.22;;;1.40;;
29344;SDS011;16339;48.748;2.222;2022-08-04T12:53:21;3.55;;;1.30;;
29344;SDS011;16339;48.748;2.222;2022-08-04T12:55:59;2.47;;;1.00;;
29344;SDS011;16339;48.748;2.222;2022-08-04T12:58:31;4.63;;;1.03;;
29344;SDS011;16339;48.748;2.222;2022-08-04T13:01:10;1.17;;;0.90;;
29344;SDS011;16339;48.748;2.222;2022-08-04T13:03:40;2.05;;;0.90;;
29344;SDS011;16339;48.748;2.222;2022-08-04T13:06:22;2.08;;;1.15;;
29344;SDS011;16339;48.748;2.222;2022-08-04T13:08:53;5.03;;;1.58;;
29344;SDS011;16339;48.748;2.222;2022-08-04T13:11:48;1.83;;;1.25;;
29344;SDS011;16339;48.748;2.222;2022-08-04T13:18:04;5.03;;;1.15;;
29344;SDS011;16339;48.748;2.222;2022-08-04T13:24:07;2.65;;;0.90;;
29344;SDS011;16339;48.748;2.222;2022-08-04T13:26:50;4.53;;;1.20;;
29344;SDS011;16339;48.748;2.222;2022-08-04T13:29:29;6.57;;;1.70;;
29344;SDS011;16339;48.748;2.222;2022-08-04T13:32:01;6.65;;;1.20;;
29344;SDS011;16339;48.748;2.222;2022-08-04T13:34:35;3.92;;;1.45;;
29344;SDS011;16339;48.748;2.222;2022-08-04T13:37:09;3.63;;;1.75;;
29344;SDS011;16339;48.748;2.222;2022-08-04T13:39:38;4.35;;;1.40;;
29344;SDS011;16339;48.748;2.222;2022-08-04T13:42:15;4.32;;;1.60;;
29344;SDS011;16339;48.748;2.222;2022-08-04T13:44:46;2.47;;;1.08;;
29344;SDS011;16339;48.748;2.222;2022-08-04T13:47:18;8.10;;;1.30;;
29344;SDS011;16339;48.748;2.222;2022-08-04T13:50:08;2.97;;;1.27;;
29344;SDS011;16339;48.748;2.222;2022-08-04T13:52:43;3.92;;;1.55;;
29344;SDS011;16339;48.748;2.222;2022-08-04T13:55:19;4.85;;;1.42;;
29344;SDS011;16339;48.748;2.222;2022-08-04T13:57:51;5.07;;;1.30;;
29344;SDS011;16339;48.748;2.222;2022-08-04T14:00:23;6.50;;;1.40;;
29344;SDS011;16339;48.748;2.222;2022-08-04T14:03:00;2.95;;;1.38;;
29344;SDS011;16339;48.748;2.222;2022-08-04T14:05:33;2.35;;;1.20;;
29344;SDS011;16339;48.748;2.222;2022-08-04T14:08:04;3.60;;;1.15;;
29344;SDS011;16339;48.748;2.222;2022-08-04T14:10:35;2.42;;;1.23;;
29344;SDS011;16339;48.748;2.222;2022-08-04T14:13:04;3.85;;;1.35;;
29344;SDS011;16339;48.748;2.222;2022-08-04T14:15:35;4.07;;;1.15;;
29344;SDS011;16339;48.748;2.222;2022-08-04T14:18:18;4.40;;;1.23;;
29344;SDS011;16339;48.748;2.222;2022-08-04T14:21:01;4.10;;;1.50;;
29344;SDS011;16339;48.748;2.222;2022-08-04T14:26:23;8.63;;;1.17;;
29344;SDS011;16339;48.748;2.222;2022-08-04T14:28:55;5.95;;;1.33;;
29344;SDS011;16339;48.748;2.222;2022-08-04T14:31:35;2.13;;;1.30;;
29344;SDS011;16339;48.748;2.222;2022-08-04T14:34:04;3.75;;;1.40;;
29344;SDS011;16339;48.748;2.222;2022-08-04T14:36:42;5.65;;;1.20;;
29344;SDS011;16339;48.748;2.222;2022-08-04T14:39:11;4.03;;;1.27;;
29344;SDS011;16339;48.748;2.222;2022-08-04T14:44:12;3.20;;;1.42;;
29344;SDS011;16339;48.748;2.222;2022-08-04T14:46:51;2.92;;;1.38;;
29344;SDS011;16339;48.748;2.222;2022-08-04T14:49:21;3.23;;;1.30;;
29344;SDS011;16339;48.748;2.222;2022-08-04T14:51:54;3.63;;;1.40;;
29344;SDS011;16339;48.748;2.222;2022-08-04T14:54:26;3.45;;;1.60;;
29344;SDS011;16339;48.748;2.222;2022-08-04T14:59:39;4.30;;;1.50;;
29344;SDS011;16339;48.748;2.222;2022-08-04T15:02:08;2.92;;;1.60;;
29344;SDS011;16339;48.748;2.222;2022-08-04T15:04:38;4.47;;;2.40;;
29344;SDS011;16339;48.748;2.222;2022-08-04T15:07:11;7.88;;;1.73;;
29344;SDS011;16339;48.748;2.222;2022-08-04T15:09:41;2.22;;;1.50;;
29344;SDS011;16339;48.748;2.222;2022-08-04T15:12:10;7.45;;;1.50;;
29344;SDS011;16339;48.748;2.222;2022-08-04T15:14:39;4.45;;;1.75;;
29344;SDS011;16339;48.748;2.222;2022-08-04T15:17:09;4.43;;;1.65;;
29344;SDS011;16339;48.748;2.222;2022-08-04T15:19:39;4.07;;;1.63;;
29344;SDS011;16339;48.748;2.222;2022-08-04T15:22:14;7.60;;;1.80;;
29344;SDS011;16339;48.748;2.222;2022-08-04T15:24:43;4.95;;;1.85;;
29344;SDS011;16339;48.748;2.222;2022-08-04T15:27:12;4.85;;;1.77;;
29344;SDS011;16339;48.748;2.222;2022-08-04T15:29:43;3.28;;;1.70;;
29344;SDS011;16339;48.748;2.222;2022-08-04T15:32:14;3.42;;;1.55;;
29344;SDS011;16339;48.748;2.222;2022-08-04T15:34:45;7.83;;;2.07;;
29344;SDS011;16339;48.748;2.222;2022-08-04T15:39:50;14.50;;;1.70;;
29344;SDS011;16339;48.748;2.222;2022-08-04T15:42:29;9.48;;;1.90;;
29344;SDS011;16339;48.748;2.222;2022-08-04T15:45:03;4.40;;;1.50;;
29344;SDS011;16339;48.748;2.222;2022-08-04T15:51:03;7.57;;;1.70;;
29344;SDS011;16339;48.748;2.222;2022-08-04T15:56:47;5.22;;;1.80;;
29344;SDS011;16339;48.748;2.222;2022-08-04T16:08:14;4.07;;;2.25;;
29344;SDS011;16339;48.748;2.222;2022-08-04T16:10:45;10.52;;;2.40;;
29344;SDS011;16339;48.748;2.222;2022-08-04T16:13:18;5.43;;;2.40;;
29344;SDS011;16339;48.748;2.222;2022-08-04T16:15:48;10.15;;;2.67;;
29344;SDS011;16339;48.748;2.222;2022-08-04T16:18:20;3.85;;;2.28;;
29344;SDS011;16339;48.748;2.222;2022-08-04T16:21:05;3.38;;;2.35;;
29344;SDS011;16339;48.748;2.222;2022-08-04T16:23:46;4.03;;;2.40;;
29344;SDS011;16339;48.748;2.222;2022-08-04T16:26:46;7.88;;;2.65;;
29344;SDS011;16339;48.748;2.222;2022-08-04T16:32:19;4.03;;;2.70;;
29344;SDS011;16339;48.748;2.222;2022-08-04T16:34:53;5.63;;;2.70;;
29344;SDS011;16339;48.748;2.222;2022-08-04T16:37:28;5.68;;;2.70;;
29344;SDS011;16339;48.748;2.222;2022-08-04T16:43:02;6.57;;;2.22;;
29344;SDS011;16339;48.748;2.222;2022-08-04T16:45:42;6.57;;;2.60;;
29344;SDS011;16339;48.748;2.222;2022-08-04T16:48:16;10.05;;;2.33;;
29344;SDS011;16339;48.748;2.222;2022-08-04T16:50:47;4.25;;;2.13;;
29344;SDS011;16339;48.748;2.222;2022-08-04T16:53:24;5.78;;;2.50;;
29344;SDS011;16339;48.748;2.222;2022-08-04T16:55:55;9.65;;;2.72;;
29344;SDS011;16339;48.748;2.222;2022-08-04T16:58:25;9.27;;;2.60;;
29344;SDS011;16339;48.748;2.222;2022-08-04T17:00:58;8.35;;;3.08;;
29344;SDS011;16339;48.748;2.222;2022-08-04T17:03:35;5.22;;;2.40;;
29344;SDS011;16339;48.748;2.222;2022-08-04T17:06:06;9.27;;;2.63;;
29344;SDS011;16339;48.748;2.222;2022-08-04T17:08:38;9.27;;;2.50;;
29344;SDS011;16339;48.748;2.222;2022-08-04T17:11:08;5.90;;;2.90;;
29344;SDS011;16339;48.748;2.222;2022-08-04T17:13:38;4.85;;;2.70;;
29344;SDS011;16339;48.748;2.222;2022-08-04T17:16:12;7.07;;;2.60;;
29344;SDS011;16339;48.748;2.222;2022-08-04T17:18:45;5.28;;;2.40;;
29344;SDS011;16339;48.748;2.222;2022-08-04T17:21:16;5.85;;;2.33;;
29344;SDS011;16339;48.748;2.222;2022-08-04T17:26:16;6.95;;;2.67;;
29344;SDS011;16339;48.748;2.222;2022-08-04T17:28:47;6.93;;;2.90;;
29344;SDS011;16339;48.748;2.222;2022-08-04T17:31:22;9.35;;;3.80;;
29344;SDS011;16339;48.748;2.222;2022-08-04T17:33:53;6.93;;;2.95;;
29344;SDS011;16339;48.748;2.222;2022-08-04T17:36:23;9.82;;;2.95;;
29344;SDS011;16339;48.748;2.222;2022-08-04T17:41:24;10.23;;;2.67;;
29344;SDS011;16339;48.748;2.222;2022-08-04T17:43:58;8.35;;;2.50;;
29344;SDS011;16339;48.748;2.222;2022-08-04T17:46:33;12.05;;;2.70;;
29344;SDS011;16339;48.748;2.222;2022-08-04T17:49:07;7.93;;;2.60;;
29344;SDS011;16339;48.748;2.222;2022-08-04T17:51:42;8.13;;;3.13;;